createdAt,value
2019-02-11T00:00:00.860Z,91.27
2019-02-11T00:01:00.867Z,91.37
2019-02-11T00:02:00.840Z,91.78
2019-02-11T00:03:00.893Z,91.78
2019-02-11T00:04:00.824Z,91.89
2019-02-11T00:05:00.806Z,91.47
2019-02-11T00:06:00.835Z,91.47
2019-02-11T00:07:00.781Z,91.89
2019-02-11T00:08:00.778Z,91.58
2019-02-11T00:09:00.769Z,91.58
2019-02-11T00:10:00.755Z,91.47
2019-02-11T00:11:00.745Z,91.47
2019-02-11T00:12:00.753Z,91.16
2019-02-11T00:13:00.756Z,91.47
2019-02-11T00:14:00.712Z,91.47
2019-02-11T00:15:00.695Z,92.10
2019-02-11T00:16:00.688Z,91.37
2019-02-11T00:17:10.478Z,91.47
2019-02-11T00:18:00.703Z,91.78
2019-02-11T00:19:08.224Z,91.47
2019-02-11T00:20:08.213Z,91.58
2019-02-11T00:21:08.263Z,91.78
2019-02-11T00:22:00.672Z,91.68
2019-02-11T00:23:08.233Z,91.58
2019-02-11T00:24:08.200Z,91.68
2019-02-11T00:25:09.164Z,91.99
2019-02-11T00:26:08.130Z,91.47
2019-02-11T00:27:10.174Z,91.68
2019-02-11T00:28:09.116Z,91.68
2019-02-11T00:29:08.122Z,91.99
2019-02-11T00:30:09.164Z,91.47
2019-02-11T00:31:07.611Z,91.41
2019-02-11T00:32:08.074Z,91.10
2019-02-11T00:33:09.267Z,91.52
2019-02-11T00:34:08.090Z,91.52
2019-02-11T00:35:08.070Z,91.41
2019-02-11T00:36:09.459Z,91.41
2019-02-11T00:37:08.087Z,91.83
2019-02-11T00:38:11.429Z,91.62
2019-02-11T00:39:08.005Z,91.52
2019-02-11T00:40:08.007Z,91.62
2019-02-11T00:41:07.968Z,91.00
2019-02-11T00:42:09.219Z,91.10
2019-02-11T00:43:09.075Z,91.10
2019-02-11T00:44:00.390Z,91.00
2019-02-11T00:45:00.425Z,91.62
2019-02-11T00:46:00.377Z,91.41
2019-02-11T00:47:00.360Z,91.62
2019-02-11T00:48:00.375Z,90.69
2019-02-11T00:49:00.371Z,91.62
2019-02-11T00:50:00.368Z,91.62
2019-02-11T00:51:00.352Z,91.62
2019-02-11T00:52:00.327Z,91.52
2019-02-11T00:53:00.336Z,90.79
2019-02-11T00:54:00.284Z,90.58
2019-02-11T00:55:00.295Z,90.52
2019-02-11T00:56:00.261Z,91.00
2019-02-11T00:57:00.255Z,91.10
2019-02-11T00:58:00.257Z,91.31
2019-02-11T00:59:00.262Z,90.89
2019-02-11T01:00:00.312Z,91.00
2019-02-11T01:01:00.237Z,91.20
2019-02-11T01:02:00.201Z,90.52
2019-02-11T01:03:00.212Z,90.72
2019-02-11T01:04:00.185Z,90.93
2019-02-11T01:05:00.169Z,91.10
2019-02-11T01:06:00.163Z,91.10
2019-02-11T01:07:00.149Z,90.31
2019-02-11T01:08:00.138Z,91.14
2019-02-11T01:09:00.150Z,90.72
2019-02-11T01:10:00.124Z,90.58
2019-02-11T01:11:00.102Z,91.03
2019-02-11T01:12:00.095Z,91.00
2019-02-11T01:13:00.082Z,91.76
2019-02-11T01:14:00.114Z,91.52
2019-02-11T01:15:00.101Z,91.03
2019-02-11T01:16:00.056Z,90.79
2019-02-11T01:17:00.053Z,91.03
2019-02-11T01:18:00.052Z,91.14
2019-02-11T01:19:00.166Z,91.24
2019-02-11T01:20:00.011Z,90.93
2019-02-11T01:21:00.008Z,90.93
2019-02-11T01:21:59.986Z,90.93
2019-02-11T01:22:59.976Z,90.93
2019-02-11T01:24:00.039Z,90.93
2019-02-11T01:24:59.989Z,91.14
2019-02-11T01:25:59.991Z,91.97
2019-02-11T01:26:59.974Z,91.10
2019-02-11T01:27:59.928Z,91.66
2019-02-11T01:28:59.914Z,91.24
2019-02-11T01:29:59.918Z,90.93
2019-02-11T01:30:59.898Z,90.52
2019-02-11T01:31:59.878Z,90.72
2019-02-11T01:32:59.875Z,90.83
2019-02-11T01:33:59.859Z,89.79
2019-02-11T01:34:59.871Z,90.48
2019-02-11T01:35:59.864Z,90.62
2019-02-11T01:36:59.872Z,90.72
2019-02-11T01:37:59.817Z,90.72
2019-02-11T01:38:59.804Z,90.62
2019-02-11T01:39:59.814Z,90.52
2019-02-11T01:40:59.785Z,90.72
2019-02-11T01:41:59.776Z,91.03
2019-02-11T01:42:59.783Z,91.14
2019-02-11T01:43:59.760Z,89.79
2019-02-11T01:44:59.769Z,90.83
2019-02-11T01:45:59.740Z,90.62
2019-02-11T01:46:59.724Z,90.52
2019-02-11T01:47:59.736Z,90.52
2019-02-11T01:48:59.703Z,90.83
2019-02-11T01:49:59.745Z,90.41
2019-02-11T01:50:59.687Z,90.93
2019-02-11T01:51:59.695Z,91.03
2019-02-11T01:52:59.668Z,90.93
2019-02-11T01:53:59.665Z,91.03
2019-02-11T01:54:59.670Z,90.93
2019-02-11T01:55:59.627Z,91.76
2019-02-11T01:56:59.619Z,91.14
2019-02-11T01:57:59.607Z,91.55
2019-02-11T01:58:59.609Z,91.03
2019-02-11T01:59:59.580Z,91.35
2019-02-11T02:00:59.594Z,90.41
2019-02-11T02:01:59.561Z,91.14
2019-02-11T02:02:59.552Z,91.03
2019-02-11T02:03:59.542Z,90.93
2019-02-11T02:04:59.530Z,90.62
2019-02-11T02:05:59.543Z,90.93
2019-02-11T02:06:59.510Z,91.14
2019-02-11T02:07:59.501Z,91.03
2019-02-11T02:08:59.485Z,91.03
2019-02-11T02:09:59.474Z,91.86
2019-02-11T02:10:59.482Z,91.45
2019-02-11T02:11:59.455Z,91.45
2019-02-11T02:12:59.443Z,91.45
2019-02-11T02:13:59.434Z,91.45
2019-02-11T02:14:59.430Z,91.72
2019-02-11T02:15:59.429Z,91.76
2019-02-11T02:16:59.407Z,91.55
2019-02-11T02:17:59.396Z,92.55
2019-02-11T02:18:59.378Z,91.52
2019-02-11T02:19:59.373Z,92.18
2019-02-11T02:20:59.385Z,91.55
2019-02-11T02:21:59.356Z,92.35
2019-02-11T02:22:59.344Z,92.24
2019-02-11T02:23:59.333Z,92.35
2019-02-11T02:24:59.330Z,91.31
2019-02-11T02:25:59.318Z,91.72
2019-02-11T02:26:59.326Z,92.03
2019-02-11T02:27:59.303Z,91.20
2019-02-11T02:28:59.296Z,91.68
2019-02-11T02:29:59.271Z,91.83
2019-02-11T02:30:59.257Z,90.85
2019-02-11T02:31:59.288Z,91.16
2019-02-11T02:32:59.241Z,90.85
2019-02-11T02:33:59.228Z,91.06
2019-02-11T02:34:59.218Z,90.23
2019-02-11T02:35:59.211Z,90.54
2019-02-11T02:36:59.207Z,90.95
2019-02-11T02:37:59.229Z,90.75
2019-02-11T02:38:59.172Z,90.64
2019-02-11T02:39:59.163Z,90.44
2019-02-11T02:40:59.158Z,90.75
2019-02-11T02:41:59.141Z,90.60
2019-02-11T02:42:59.156Z,91.16
2019-02-11T02:43:59.124Z,90.85
2019-02-11T02:44:59.120Z,89.71
2019-02-11T02:45:59.134Z,90.85
2019-02-11T02:46:59.086Z,89.92
2019-02-11T02:47:59.126Z,90.33
2019-02-11T02:48:59.083Z,90.33
2019-02-11T02:49:59.075Z,90.19
2019-02-11T02:50:59.104Z,90.08
2019-02-11T02:51:59.052Z,90.19
2019-02-11T02:52:59.046Z,89.56
2019-02-11T02:53:59.035Z,89.25
2019-02-11T02:54:59.007Z,89.36
2019-02-11T02:55:58.988Z,88.94
2019-02-11T02:56:58.984Z,89.25
2019-02-11T02:57:58.980Z,88.53
2019-02-11T02:58:58.978Z,88.73
2019-02-11T02:59:58.950Z,88.63
2019-02-11T03:00:58.944Z,88.73
2019-02-11T03:01:58.928Z,88.63
2019-02-11T03:02:58.920Z,87.90
2019-02-11T03:03:58.923Z,87.80
2019-02-11T03:04:58.897Z,88.42
2019-02-11T03:05:58.896Z,88.69
2019-02-11T03:06:58.886Z,88.59
2019-02-11T03:07:58.875Z,87.76
2019-02-11T03:08:58.877Z,87.87
2019-02-11T03:09:58.895Z,88.07
2019-02-11T03:10:58.836Z,87.66
2019-02-11T03:11:58.822Z,87.76
2019-02-11T03:12:58.817Z,87.66
2019-02-11T03:14:05.333Z,88.39
2019-02-11T03:14:59.812Z,87.66
2019-02-11T03:15:58.781Z,87.28
2019-02-11T03:16:58.773Z,87.04
2019-02-11T03:17:58.759Z,86.83
2019-02-11T03:18:58.749Z,86.62
2019-02-11T03:19:58.758Z,86.93
2019-02-11T03:20:58.782Z,87.14
2019-02-11T03:21:58.739Z,87.04
2019-02-11T03:22:58.705Z,86.10
2019-02-11T03:23:58.701Z,86.21
2019-02-11T03:24:58.727Z,86.83
2019-02-11T03:26:06.265Z,86.00
2019-02-11T03:26:58.667Z,86.31
2019-02-11T03:27:58.658Z,86.04
2019-02-11T03:28:58.677Z,86.00
2019-02-11T03:29:58.636Z,85.79
2019-02-11T03:30:58.644Z,85.69
2019-02-11T03:31:59.973Z,85.48
2019-02-11T03:32:58.602Z,85.34
2019-02-11T03:33:58.590Z,85.79
2019-02-11T03:34:58.582Z,86.00
2019-02-11T03:35:58.586Z,85.27
2019-02-11T03:36:58.562Z,86.00
2019-02-11T03:37:58.548Z,86.00
2019-02-11T03:38:58.533Z,85.89
2019-02-11T03:39:58.533Z,85.69
2019-02-11T03:40:58.535Z,86.31
2019-02-11T03:41:58.502Z,86.31
2019-02-11T03:42:58.493Z,85.79
2019-02-11T03:43:58.481Z,87.24
2019-02-11T03:44:58.472Z,87.04
2019-02-11T03:45:58.485Z,86.83
2019-02-11T03:46:58.449Z,86.93
2019-02-11T03:47:58.443Z,86.93
2019-02-11T03:49:06.009Z,87.04
2019-02-11T03:50:05.982Z,86.83
2019-02-11T03:51:07.161Z,86.93
2019-02-11T03:52:05.963Z,86.93
2019-02-11T03:53:05.967Z,87.24
2019-02-11T03:53:58.426Z,86.83
2019-02-11T03:54:58.373Z,86.89
2019-02-11T03:55:58.400Z,86.21
2019-02-11T03:56:58.352Z,86.89
2019-02-11T03:57:58.337Z,86.99
2019-02-11T03:58:58.324Z,86.93
2019-02-11T03:59:58.314Z,86.72
2019-02-11T04:00:58.344Z,86.68
2019-02-11T04:01:58.291Z,86.89
2019-02-11T04:02:58.279Z,87.10
2019-02-11T04:03:58.272Z,86.58
2019-02-11T04:04:58.268Z,86.58
2019-02-11T04:05:58.295Z,87.10
2019-02-11T04:06:58.268Z,86.99
2019-02-11T04:07:58.233Z,86.89
2019-02-11T04:08:58.223Z,86.89
2019-02-11T04:09:58.208Z,87.10
2019-02-11T04:10:58.202Z,86.89
2019-02-11T04:11:58.234Z,86.79
2019-02-11T04:12:58.180Z,86.89
2019-02-11T04:13:58.168Z,86.89
2019-02-11T04:14:58.156Z,87.20
2019-02-11T04:15:58.146Z,86.17
2019-02-11T04:16:58.134Z,87.20
2019-02-11T04:17:58.155Z,86.17
2019-02-11T04:18:58.141Z,86.27
2019-02-11T04:19:58.109Z,86.07
2019-02-11T04:20:58.097Z,85.75
2019-02-11T04:21:58.090Z,85.61
2019-02-11T04:22:58.088Z,85.82
2019-02-11T04:23:58.070Z,85.71
2019-02-11T04:24:58.055Z,85.40
2019-02-11T04:25:58.068Z,85.92
2019-02-11T04:26:58.054Z,85.82
2019-02-11T04:27:58.040Z,85.50
2019-02-11T04:28:58.012Z,86.07
2019-02-11T04:29:58.012Z,84.88
2019-02-11T04:30:57.994Z,85.30
2019-02-11T04:31:57.987Z,84.78
2019-02-11T04:32:57.990Z,85.30
2019-02-11T04:33:58.357Z,84.58
2019-02-11T04:34:57.958Z,85.09
2019-02-11T04:35:57.939Z,85.19
2019-02-11T04:36:57.936Z,85.44
2019-02-11T04:37:57.937Z,85.03
2019-02-11T04:38:57.903Z,84.68
2019-02-11T04:39:57.902Z,84.68
2019-02-11T04:40:57.889Z,84.78
2019-02-11T04:41:57.881Z,83.95
2019-02-11T04:42:57.889Z,83.85
2019-02-11T04:43:57.849Z,83.85
2019-02-11T04:44:57.895Z,84.06
2019-02-11T04:45:57.839Z,83.85
2019-02-11T04:46:57.829Z,84.06
2019-02-11T04:47:57.833Z,84.16
2019-02-11T04:48:57.826Z,84.06
2019-02-11T04:49:57.795Z,83.75
2019-02-11T04:50:57.783Z,83.95
2019-02-11T04:51:58.975Z,83.44
2019-02-11T04:52:57.765Z,83.85
2019-02-11T04:53:57.774Z,84.16
2019-02-11T04:54:57.738Z,83.95
2019-02-11T04:55:57.727Z,83.75
2019-02-11T04:56:57.727Z,83.75
2019-02-11T04:57:57.705Z,83.12
2019-02-11T04:59:05.255Z,83.33
2019-02-11T05:00:06.235Z,83.50
2019-02-11T05:01:05.225Z,83.85
2019-02-11T05:02:05.282Z,83.33
2019-02-11T05:02:57.659Z,83.33
2019-02-11T05:03:57.640Z,82.92
2019-02-11T05:04:57.655Z,83.95
2019-02-11T05:05:57.620Z,83.75
2019-02-11T05:06:57.613Z,83.64
2019-02-11T05:07:57.602Z,83.33
2019-02-11T05:08:57.595Z,83.44
2019-02-11T05:09:57.613Z,83.19
2019-02-11T05:10:57.580Z,83.23
2019-02-11T05:11:57.561Z,83.23
2019-02-11T05:12:57.549Z,83.33
2019-02-11T05:13:57.545Z,83.75
2019-02-11T05:14:57.555Z,83.64
2019-02-11T05:15:57.518Z,83.40
2019-02-11T05:16:57.585Z,83.61
2019-02-11T05:17:57.505Z,83.44
2019-02-11T05:18:57.493Z,83.44
2019-02-11T05:19:57.477Z,83.64
2019-02-11T05:20:57.535Z,83.23
2019-02-11T05:21:57.458Z,83.75
2019-02-11T05:22:57.453Z,83.02
2019-02-11T05:23:57.445Z,83.61
2019-02-11T05:24:57.424Z,83.75
2019-02-11T05:25:57.445Z,83.23
2019-02-11T05:26:57.427Z,82.92
2019-02-11T05:27:57.394Z,83.81
2019-02-11T05:28:57.403Z,83.54
2019-02-11T05:29:57.370Z,83.54
2019-02-11T05:30:57.434Z,83.19
2019-02-11T05:31:57.357Z,83.44
2019-02-11T05:32:57.403Z,83.64
2019-02-11T05:33:57.330Z,83.54
2019-02-11T05:34:57.380Z,83.44
2019-02-11T05:35:57.313Z,83.40
2019-02-11T05:36:57.326Z,83.12
2019-02-11T05:37:57.293Z,83.54
2019-02-11T05:38:57.279Z,83.12
2019-02-11T05:39:57.267Z,83.75
2019-02-11T05:40:57.285Z,83.44
2019-02-11T05:41:57.306Z,82.71
2019-02-11T05:42:57.236Z,83.44
2019-02-11T05:43:57.223Z,82.81
2019-02-11T05:44:57.237Z,83.33
2019-02-11T05:45:57.206Z,83.54
2019-02-11T05:46:57.218Z,82.71
2019-02-11T05:47:57.187Z,82.81
2019-02-11T05:48:57.176Z,82.50
2019-02-11T05:49:57.174Z,82.50
2019-02-11T05:50:57.157Z,82.60
2019-02-11T05:51:57.160Z,82.40
2019-02-11T05:53:04.717Z,82.40
2019-02-11T05:53:57.123Z,82.60
2019-02-11T05:54:57.164Z,82.40
2019-02-11T05:55:57.105Z,83.02
2019-02-11T05:56:57.133Z,82.71
2019-02-11T05:57:57.075Z,82.92
2019-02-11T05:58:57.069Z,82.50
2019-02-11T05:59:57.067Z,82.23
2019-02-11T06:00:57.057Z,82.29
2019-02-11T06:02:05.868Z,82.09
2019-02-11T06:03:04.608Z,81.92
2019-02-11T06:03:57.074Z,82.50
2019-02-11T06:04:57.005Z,82.92
2019-02-11T06:05:57.000Z,82.19
2019-02-11T06:06:56.997Z,82.50
2019-02-11T06:07:57.027Z,82.29
2019-02-11T06:08:56.970Z,82.40
2019-02-11T06:09:56.951Z,82.19
2019-02-11T06:10:56.952Z,82.86
2019-02-11T06:11:56.937Z,82.60
2019-02-11T06:12:56.972Z,82.09
2019-02-11T06:13:56.908Z,82.81
2019-02-11T06:15:03.971Z,82.71
2019-02-11T06:15:57.885Z,82.54
2019-02-11T06:16:56.881Z,82.44
2019-02-11T06:17:56.869Z,82.71
2019-02-11T06:18:56.879Z,82.44
2019-02-11T06:19:56.845Z,82.65
2019-02-11T06:20:56.839Z,82.54
2019-02-11T06:21:56.826Z,82.75
2019-02-11T06:22:56.820Z,82.86
2019-02-11T06:23:56.884Z,82.86
2019-02-11T06:24:56.793Z,82.75
2019-02-11T06:25:56.797Z,82.54
2019-02-11T06:26:56.788Z,82.65
2019-02-11T06:27:56.763Z,82.81
2019-02-11T06:28:56.774Z,82.86
2019-02-11T06:29:56.754Z,83.06
2019-02-11T06:30:56.733Z,83.16
2019-02-11T06:31:56.733Z,82.95
2019-02-11T06:32:56.709Z,83.06
2019-02-11T06:33:56.699Z,83.99
2019-02-11T06:34:56.709Z,83.58
2019-02-11T06:35:56.678Z,83.99
2019-02-11T06:36:56.919Z,83.58
2019-02-11T06:37:56.680Z,82.86
2019-02-11T06:38:56.681Z,82.75
2019-02-11T06:39:56.655Z,83.89
2019-02-11T06:40:56.640Z,82.95
2019-02-11T06:41:56.615Z,82.65
2019-02-11T06:42:56.649Z,82.95
2019-02-11T06:43:56.659Z,83.16
2019-02-11T06:44:56.635Z,83.89
2019-02-11T06:45:56.570Z,83.06
2019-02-11T06:46:56.582Z,82.86
2019-02-11T06:47:56.553Z,82.65
2019-02-11T06:48:56.542Z,82.86
2019-02-11T06:49:56.530Z,82.65
2019-02-11T06:51:05.369Z,82.86
2019-02-11T06:51:56.510Z,83.06
2019-02-11T06:52:56.516Z,82.44
2019-02-11T06:53:56.489Z,82.75
2019-02-11T06:54:56.527Z,82.54
2019-02-11T06:55:56.470Z,82.54
2019-02-11T06:56:56.460Z,82.86
2019-02-11T06:57:56.453Z,82.75
2019-02-11T06:58:56.439Z,82.54
2019-02-11T06:59:56.436Z,82.86
2019-02-11T07:00:56.435Z,82.75
2019-02-11T07:01:56.430Z,82.54
2019-02-11T07:02:56.395Z,82.86
2019-02-11T07:03:56.389Z,82.34
2019-02-11T07:04:56.374Z,82.03
2019-02-11T07:05:56.400Z,82.29
2019-02-11T07:06:56.406Z,82.40
2019-02-11T07:07:56.377Z,82.44
2019-02-11T07:08:56.338Z,81.92
2019-02-11T07:09:56.328Z,82.13
2019-02-11T07:10:56.343Z,81.82
2019-02-11T07:11:56.328Z,82.34
2019-02-11T07:12:56.324Z,82.19
2019-02-11T07:13:56.289Z,82.23
2019-02-11T07:14:56.273Z,81.92
2019-02-11T07:15:56.259Z,82.44
2019-02-11T07:16:56.274Z,82.13
2019-02-11T07:17:56.246Z,82.34
2019-02-11T07:18:56.236Z,82.75
2019-02-11T07:20:03.759Z,82.95
2019-02-11T07:20:56.225Z,82.86
2019-02-11T07:21:56.199Z,82.54
2019-02-11T07:22:56.214Z,82.54
2019-02-11T07:23:56.180Z,82.86
2019-02-11T07:24:56.212Z,82.54
2019-02-11T07:25:56.157Z,82.65
2019-02-11T07:26:56.165Z,82.75
2019-02-11T07:27:56.133Z,82.95
2019-02-11T07:28:56.124Z,82.65
2019-02-11T07:29:56.128Z,83.37
2019-02-11T07:30:56.113Z,82.95
2019-02-11T07:31:56.120Z,83.47
2019-02-11T07:32:56.088Z,83.58
2019-02-11T07:33:56.091Z,83.37
2019-02-11T07:34:56.069Z,83.16
2019-02-11T07:35:56.086Z,83.85
2019-02-11T07:36:56.091Z,83.47
2019-02-11T07:37:56.041Z,83.68
2019-02-11T07:38:56.017Z,83.37
2019-02-11T07:39:56.011Z,82.71
2019-02-11T07:40:56.000Z,82.86
2019-02-11T07:41:56.029Z,83.78
2019-02-11T07:42:56.023Z,83.44
2019-02-11T07:43:55.964Z,83.47
2019-02-11T07:44:55.978Z,83.44
2019-02-11T07:45:55.970Z,83.89
2019-02-11T07:46:55.936Z,82.92
2019-02-11T07:47:55.945Z,83.02
2019-02-11T07:48:55.936Z,82.71
2019-02-11T07:49:55.909Z,83.02
2019-02-11T07:50:55.910Z,82.81
2019-02-11T07:51:55.924Z,83.78
2019-02-11T07:52:55.872Z,83.64
2019-02-11T07:53:55.879Z,83.06
2019-02-11T07:54:55.853Z,83.47
2019-02-11T07:55:55.842Z,83.68
2019-02-11T07:56:55.887Z,83.78
2019-02-11T07:57:55.819Z,82.71
2019-02-11T07:58:55.833Z,82.65
2019-02-11T07:59:57.268Z,83.64
2019-02-11T08:00:55.793Z,83.44
2019-02-11T08:01:55.784Z,83.06
2019-02-11T08:02:55.772Z,83.75
2019-02-11T08:03:55.787Z,83.78
2019-02-11T08:04:55.756Z,82.71
2019-02-11T08:05:55.738Z,82.60
2019-02-11T08:06:55.725Z,82.60
2019-02-11T08:07:55.751Z,82.71
2019-02-11T08:08:55.722Z,82.92
2019-02-11T08:09:55.722Z,82.92
2019-02-11T08:10:55.687Z,82.71
2019-02-11T08:11:55.696Z,82.92
2019-02-11T08:12:55.660Z,82.71
2019-02-11T08:13:55.655Z,82.75
2019-02-11T08:14:55.662Z,82.92
2019-02-11T08:15:55.633Z,82.54
2019-02-11T08:16:55.621Z,82.50
2019-02-11T08:17:55.630Z,82.50
2019-02-11T08:18:55.611Z,82.81
2019-02-11T08:19:55.827Z,82.19
2019-02-11T08:20:55.575Z,82.71
2019-02-11T08:21:55.567Z,82.19
2019-02-11T08:22:55.559Z,82.60
2019-02-11T08:23:55.564Z,81.99
2019-02-11T08:24:55.531Z,82.71
2019-02-11T08:25:55.587Z,82.23
2019-02-11T08:26:55.624Z,82.54
2019-02-11T08:27:55.520Z,82.03
2019-02-11T08:28:55.492Z,82.86
2019-02-11T08:29:55.516Z,82.75
2019-02-11T08:30:55.583Z,82.40
2019-02-11T08:31:55.584Z,82.92
2019-02-11T08:32:55.448Z,82.81
2019-02-11T08:33:55.439Z,82.09
2019-02-11T08:34:55.423Z,82.34
2019-02-11T08:35:55.413Z,82.34
2019-02-11T08:36:55.420Z,81.88
2019-02-11T08:37:55.395Z,81.82
2019-02-11T08:38:55.489Z,82.34
2019-02-11T08:39:55.377Z,82.40
2019-02-11T08:40:55.374Z,82.44
2019-02-11T08:41:55.372Z,82.19
2019-02-11T08:42:55.346Z,82.29
2019-02-11T08:43:55.330Z,81.78
2019-02-11T08:44:55.318Z,82.09
2019-02-11T08:45:55.321Z,82.09
2019-02-11T08:46:55.320Z,80.74
2019-02-11T08:47:55.287Z,81.78
2019-02-11T08:48:55.274Z,81.68
2019-02-11T08:49:55.292Z,80.71
2019-02-11T08:50:55.251Z,81.26
2019-02-11T08:51:55.262Z,81.16
2019-02-11T08:52:55.233Z,81.37
2019-02-11T08:53:55.223Z,80.60
2019-02-11T08:54:55.209Z,80.22
2019-02-11T08:55:55.202Z,80.71
2019-02-11T08:56:55.241Z,81.26
2019-02-11T08:57:55.187Z,80.91
2019-02-11T08:58:55.174Z,80.81
2019-02-11T08:59:55.154Z,80.22
2019-02-11T09:00:55.257Z,79.98
2019-02-11T09:01:55.177Z,80.40
2019-02-11T09:02:55.206Z,80.71
2019-02-11T09:03:55.194Z,80.29
2019-02-11T09:04:55.105Z,80.40
2019-02-11T09:05:55.093Z,80.08
2019-02-11T09:06:55.082Z,80.19
2019-02-11T09:07:55.098Z,80.40
2019-02-11T09:08:55.092Z,80.29
2019-02-11T09:09:55.045Z,80.08
2019-02-11T09:10:55.042Z,80.19
2019-02-11T09:11:55.056Z,80.29
2019-02-11T09:12:55.045Z,80.36
2019-02-11T09:13:55.031Z,79.67
2019-02-11T09:14:55.000Z,79.57
2019-02-11T09:15:55.502Z,79.88
2019-02-11T09:16:55.007Z,80.08
2019-02-11T09:17:54.978Z,80.26
2019-02-11T09:18:54.971Z,80.40
2019-02-11T09:19:54.943Z,79.43
2019-02-11T09:20:54.952Z,80.05
2019-02-11T09:21:54.920Z,80.50
2019-02-11T09:22:54.918Z,79.74
2019-02-11T09:23:54.949Z,80.19
2019-02-11T09:24:54.888Z,79.94
2019-02-11T09:25:54.881Z,79.84
2019-02-11T09:26:54.872Z,80.40
2019-02-11T09:27:54.877Z,80.19
2019-02-11T09:28:54.862Z,80.05
2019-02-11T09:29:54.839Z,79.36
2019-02-11T09:30:54.827Z,79.53
2019-02-11T09:31:54.823Z,79.53
2019-02-11T09:33:02.355Z,79.53
2019-02-11T09:34:02.337Z,79.33
2019-02-11T09:34:54.776Z,79.43
2019-02-11T09:35:54.767Z,79.53
2019-02-11T09:36:54.756Z,79.12
2019-02-11T09:37:54.749Z,80.15
2019-02-11T09:38:54.757Z,78.70
2019-02-11T09:40:02.257Z,79.22
2019-02-11T09:41:02.259Z,79.22
2019-02-11T09:41:54.703Z,79.63
2019-02-11T09:42:54.695Z,78.88
2019-02-11T09:43:54.683Z,78.88
2019-02-11T09:44:54.694Z,78.56
2019-02-11T09:45:54.667Z,78.56
2019-02-11T09:46:54.651Z,78.88
2019-02-11T09:47:54.635Z,79.29
2019-02-11T09:49:02.164Z,78.36
2019-02-11T09:50:03.503Z,78.98
2019-02-11T09:51:02.141Z,78.67
2019-02-11T09:52:02.133Z,78.67
2019-02-11T09:53:02.127Z,78.25
2019-02-11T09:54:02.107Z,78.36
2019-02-11T09:55:02.096Z,78.56
2019-02-11T09:56:03.110Z,78.46
2019-02-11T09:57:02.087Z,77.43
2019-02-11T09:58:02.066Z,77.74
2019-02-11T09:59:02.059Z,78.05
2019-02-11T10:00:02.058Z,78.05
2019-02-11T10:01:03.252Z,78.22
2019-02-11T10:02:02.041Z,77.50
2019-02-11T10:03:02.019Z,77.64
2019-02-11T10:04:03.021Z,77.53
2019-02-11T10:05:01.990Z,77.60
2019-02-11T10:05:54.463Z,77.70
2019-02-11T10:07:03.021Z,77.29
2019-02-11T10:07:54.431Z,76.64
2019-02-11T10:08:54.416Z,76.77
2019-02-11T10:09:54.402Z,77.08
2019-02-11T10:10:54.397Z,77.70
2019-02-11T10:11:54.402Z,77.67
2019-02-11T10:12:54.375Z,77.04
2019-02-11T10:13:54.377Z,77.04
2019-02-11T10:14:54.354Z,76.12
2019-02-11T10:15:54.340Z,76.43
2019-02-11T10:16:54.358Z,76.22
2019-02-11T10:17:54.362Z,76.53
2019-02-11T10:18:54.307Z,75.91
2019-02-11T10:19:54.298Z,75.49
2019-02-11T10:20:54.284Z,75.98
2019-02-11T10:21:54.298Z,75.57
2019-02-11T10:22:54.264Z,75.05
2019-02-11T10:23:54.273Z,75.87
2019-02-11T10:24:54.241Z,74.95
2019-02-11T10:25:54.242Z,75.77
2019-02-11T10:26:54.255Z,75.05
2019-02-11T10:27:54.207Z,75.67
2019-02-11T10:28:54.198Z,75.57
2019-02-11T10:29:54.248Z,74.84
2019-02-11T10:30:54.182Z,75.77
2019-02-11T10:31:54.181Z,75.57
2019-02-11T10:32:54.182Z,75.57
2019-02-11T10:33:54.188Z,75.46
2019-02-11T10:34:54.140Z,75.57
2019-02-11T10:35:54.154Z,75.46
2019-02-11T10:36:54.140Z,75.36
2019-02-11T10:37:54.121Z,76.01
2019-02-11T10:38:54.097Z,76.08
2019-02-11T10:39:54.086Z,75.87
2019-02-11T10:40:54.072Z,75.77
2019-02-11T10:41:54.082Z,75.77
2019-02-11T10:42:54.088Z,75.53
2019-02-11T10:43:54.066Z,74.60
2019-02-11T10:44:54.031Z,75.63
2019-02-11T10:45:54.032Z,75.74
2019-02-11T10:46:54.035Z,75.05
2019-02-11T10:47:54.009Z,74.91
2019-02-11T10:48:54.002Z,75.15
2019-02-11T10:49:53.981Z,75.05
2019-02-11T10:50:54.001Z,75.67
2019-02-11T10:51:53.952Z,75.36
2019-02-11T10:52:53.950Z,75.67
2019-02-11T10:53:53.954Z,75.57
2019-02-11T10:54:53.928Z,74.71
2019-02-11T10:55:53.915Z,73.98
2019-02-11T10:56:53.911Z,74.43
2019-02-11T10:57:53.892Z,74.40
2019-02-11T10:58:53.884Z,74.29
2019-02-11T10:59:53.918Z,74.29
2019-02-11T11:00:53.853Z,74.71
2019-02-11T11:01:53.881Z,74.08
2019-02-11T11:02:53.856Z,74.08
2019-02-11T11:03:53.830Z,73.26
2019-02-11T11:04:53.933Z,74.08
2019-02-11T11:05:53.806Z,73.68
2019-02-11T11:06:53.793Z,73.26
2019-02-11T11:07:53.791Z,73.16
2019-02-11T11:08:53.782Z,73.05
2019-02-11T11:09:53.815Z,73.12
2019-02-11T11:10:53.747Z,73.12
2019-02-11T11:11:53.736Z,73.33
2019-02-11T11:12:53.737Z,72.47
2019-02-11T11:13:53.743Z,71.99
2019-02-11T11:14:53.703Z,72.06
2019-02-11T11:15:53.714Z,72.37
2019-02-11T11:16:53.741Z,72.99
2019-02-11T11:17:53.681Z,72.99
2019-02-11T11:18:53.669Z,73.02
2019-02-11T11:19:53.661Z,73.02
2019-02-11T11:20:53.658Z,73.33
2019-02-11T11:21:53.683Z,72.92
2019-02-11T11:22:53.624Z,73.22
2019-02-11T11:23:53.616Z,73.33
2019-02-11T11:24:53.626Z,72.88
2019-02-11T11:25:53.628Z,73.09
2019-02-11T11:26:53.577Z,73.12
2019-02-11T11:27:53.597Z,72.67
2019-02-11T11:28:53.563Z,72.88
2019-02-11T11:29:53.546Z,72.78
2019-02-11T11:30:53.537Z,72.67
2019-02-11T11:31:53.610Z,72.40
2019-02-11T11:32:53.513Z,72.81
2019-02-11T11:33:53.502Z,72.71
2019-02-11T11:34:53.489Z,72.40
2019-02-11T11:35:53.514Z,72.61
2019-02-11T11:36:53.493Z,72.61
2019-02-11T11:37:53.463Z,73.43
2019-02-11T11:38:53.476Z,72.81
2019-02-11T11:39:53.470Z,73.16
2019-02-11T11:40:53.435Z,73.12
2019-02-11T11:41:53.442Z,72.92
2019-02-11T11:42:53.405Z,73.33
2019-02-11T11:43:53.391Z,73.22
2019-02-11T11:44:53.388Z,72.61
2019-02-11T11:45:53.380Z,72.50
2019-02-11T11:46:53.401Z,72.71
2019-02-11T11:47:53.369Z,72.40
2019-02-11T11:48:53.342Z,72.71
2019-02-11T11:49:53.374Z,72.30
2019-02-11T11:50:53.338Z,72.50
2019-02-11T11:51:53.315Z,72.40
2019-02-11T11:52:53.314Z,71.99
2019-02-11T11:53:53.293Z,71.99
2019-02-11T11:54:53.286Z,72.40
2019-02-11T11:55:53.338Z,72.19
2019-02-11T11:56:53.259Z,72.40
2019-02-11T11:57:53.291Z,72.40
2019-02-11T11:58:53.246Z,72.40
2019-02-11T11:59:53.223Z,72.81
2019-02-11T12:00:53.224Z,72.50
2019-02-11T12:01:53.202Z,72.81
2019-02-11T12:03:02.058Z,72.81
2019-02-11T12:03:54.179Z,73.43
2019-02-11T12:04:53.169Z,73.22
2019-02-11T12:05:53.160Z,73.02
2019-02-11T12:06:53.150Z,73.12
2019-02-11T12:07:53.158Z,73.22
2019-02-11T12:08:53.150Z,73.02
2019-02-11T12:09:53.118Z,73.43
2019-02-11T12:10:53.120Z,73.19
2019-02-11T12:11:53.102Z,72.58
2019-02-11T12:12:53.107Z,72.92
2019-02-11T12:13:53.101Z,72.81
2019-02-11T12:14:53.070Z,73.43
2019-02-11T12:15:53.058Z,72.67
2019-02-11T12:16:57.750Z,73.19
2019-02-11T12:17:54.503Z,72.99
2019-02-11T12:18:53.051Z,73.19
2019-02-11T12:19:53.009Z,72.54
2019-02-11T12:20:53.042Z,72.99
2019-02-11T12:21:52.997Z,72.78
2019-02-11T12:22:52.974Z,72.99
2019-02-11T12:23:52.984Z,73.09
2019-02-11T12:24:52.989Z,73.40
2019-02-11T12:25:52.958Z,73.91
2019-02-11T12:26:52.944Z,73.74
2019-02-11T12:27:52.924Z,75.49
2019-02-11T12:28:52.925Z,76.21
2019-02-11T12:29:52.914Z,75.81
2019-02-11T12:30:53.851Z,76.87
2019-02-11T12:31:52.912Z,77.70
2019-02-11T12:32:54.784Z,78.52
2019-02-11T12:33:52.875Z,78.56
2019-02-11T12:34:52.864Z,79.25
2019-02-11T12:35:52.853Z,78.94
2019-02-11T12:36:52.829Z,79.49
2019-02-11T12:37:52.816Z,79.90
2019-02-11T12:38:52.808Z,79.66
2019-02-11T12:39:52.843Z,79.18
2019-02-11T12:40:52.778Z,80.28
2019-02-11T12:41:52.773Z,80.21
2019-02-11T12:42:53.930Z,79.35
2019-02-11T12:43:52.757Z,80.38
2019-02-11T12:44:52.770Z,80.73
2019-02-11T12:45:52.746Z,80.58
2019-02-11T12:46:52.726Z,81.00
2019-02-11T12:47:52.717Z,80.73
2019-02-11T12:48:52.706Z,80.62
2019-02-11T12:49:52.693Z,81.72
2019-02-11T12:50:52.695Z,80.93
2019-02-11T12:51:52.664Z,80.58